createdAt,value
2023-07-22T00:01:46.379Z,100261.19
2023-07-22T00:04:16.473Z,100260.38
2023-07-22T00:06:46.152Z,100253.28
2023-07-22T02:36:11.417Z,100166.03
2023-07-22T02:38:41.086Z,100163.25
2023-07-22T02:41:10.939Z,100156.63
2023-07-22T02:43:40.621Z,100170.47
2023-07-22T02:46:10.814Z,100165.78
2023-07-22T02:48:41.862Z,100171.94
2023-07-22T02:51:13.146Z,100167.00
2023-07-22T02:53:43.878Z,100160.38
2023-07-22T02:56:13.862Z,100155.59
2023-07-22T02:58:44.593Z,100156.78
2023-07-22T03:01:14.305Z,100156.03
2023-07-22T03:03:44.194Z,100165.16
2023-07-22T03:06:13.926Z,100159.88
2023-07-22T03:08:43.631Z,100155.84
2023-07-22T03:11:13.331Z,100153.81
2023-07-22T03:13:43.295Z,100158.78
2023-07-22T03:16:13.025Z,100147.69
2023-07-22T03:18:42.796Z,100143.56
2023-07-22T03:21:12.489Z,100142.72
2023-07-22T03:23:42.614Z,100142.84
2023-07-22T03:26:12.294Z,100136.34
2023-07-22T03:29:00.038Z,100152.06
2023-07-22T03:31:29.805Z,100147.81
2023-07-22T03:34:00.807Z,100149.09
2023-07-22T03:36:31.066Z,100149.22
2023-07-22T03:39:00.734Z,100153.38
2023-07-22T03:41:30.471Z,100142.72
2023-07-22T03:44:00.182Z,100135.88
2023-07-22T03:46:30.093Z,100131.25
2023-07-22T03:48:59.898Z,100135.59
2023-07-22T03:51:29.589Z,100133.03
2023-07-22T03:53:59.321Z,100131.63
2023-07-22T03:56:29.698Z,100128.63
2023-07-22T03:59:00.213Z,100119.09
2023-07-22T04:01:29.923Z,100122.63
2023-07-22T04:03:59.680Z,100107.75
2023-07-22T04:06:29.762Z,100117.75
2023-07-22T04:08:59.775Z,100114.84
2023-07-22T04:11:30.011Z,100101.47
2023-07-22T04:14:00.837Z,100102.66
2023-07-22T04:16:31.016Z,100093.94
2023-07-22T04:19:00.869Z,100100.63
2023-07-22T04:21:30.649Z,100090.16
2023-07-22T04:24:00.326Z,100088.72
2023-07-22T04:26:30.158Z,100086.00
2023-07-22T04:28:59.869Z,100083.66
2023-07-22T04:31:30.500Z,100080.94
2023-07-22T04:34:01.792Z,100086.25
2023-07-22T04:36:31.503Z,100085.75
2023-07-22T04:39:01.202Z,100085.88
2023-07-22T04:41:30.884Z,100090.97
2023-07-22T04:44:01.299Z,100087.66
2023-07-22T04:46:31.528Z,100084.34
2023-07-22T04:49:01.707Z,100083.03
2023-07-22T04:51:31.434Z,100075.13
2023-07-22T04:54:01.315Z,100078.44
2023-07-22T04:56:33.687Z,100088.00
2023-07-22T04:59:03.400Z,100081.75
2023-07-22T05:01:33.494Z,100075.81
2023-07-22T05:04:03.300Z,100072.38
2023-07-22T05:06:33.443Z,100075.91
2023-07-22T05:09:03.125Z,100079.03
2023-07-22T05:11:32.869Z,100075.72
2023-07-22T05:14:03.019Z,100076.41
2023-07-22T05:16:32.893Z,100073.09
2023-07-22T05:19:02.686Z,100073.59
2023-07-22T05:21:32.408Z,100081.41
2023-07-22T05:24:02.590Z,100083.66
2023-07-22T05:26:33.947Z,100073.84
2023-07-22T05:29:03.656Z,100076.06
2023-07-22T05:31:34.486Z,100076.16
2023-07-22T05:34:04.235Z,100072.41
2023-07-22T05:36:35.087Z,100070.81
2023-07-22T05:39:06.060Z,100072.78
2023-07-22T05:41:40.566Z,100080.78
2023-07-22T05:44:11.439Z,100077.34
2023-07-22T05:46:41.600Z,100072.41
2023-07-22T05:49:13.083Z,100073.22
2023-07-22T05:51:42.870Z,100077.84
2023-07-22T05:54:12.554Z,100075.44
2023-07-22T05:56:42.217Z,100084.66
2023-07-22T05:59:13.005Z,100076.50
2023-07-22T06:01:43.315Z,100074.63
2023-07-22T06:04:15.996Z,100082.78
2023-07-22T06:06:45.791Z,100086.31
2023-07-22T06:09:16.693Z,100099.91
2023-07-22T06:11:46.451Z,100111.84
2023-07-22T06:14:16.140Z,100122.47
2023-07-22T06:16:48.239Z,100121.66
2023-07-22T06:19:18.713Z,100109.75
2023-07-22T06:21:48.389Z,100119.19
2023-07-22T06:24:18.128Z,100103.69
2023-07-22T06:26:47.767Z,100102.88
2023-07-22T06:29:17.403Z,100100.97
2023-07-22T06:31:47.176Z,100087.13
2023-07-22T06:34:16.909Z,100084.31
2023-07-22T06:36:46.566Z,100079.72
2023-07-22T06:39:16.624Z,100074.28
2023-07-22T06:41:47.018Z,100074.28
2023-07-22T06:44:16.738Z,100072.41
2023-07-22T06:46:47.259Z,100058.00
2023-07-22T06:49:17.069Z,100053.59
2023-07-22T06:51:46.795Z,100068.00
2023-07-22T06:54:16.456Z,100050.88
2023-07-22T06:56:46.119Z,100050.66
2023-07-22T06:59:15.956Z,100050.16
2023-07-22T07:01:45.652Z,100048.75
2023-07-22T07:04:15.466Z,100048.50
2023-07-22T07:06:45.203Z,100032.19
2023-07-22T07:09:15.181Z,100032.66
2023-07-22T07:11:44.928Z,100031.63
2023-07-22T07:14:24.421Z,100027.84
2023-07-22T07:16:54.149Z,100023.78
2023-07-22T07:19:24.166Z,100012.09
2023-07-22T07:21:54.482Z,100015.06
2023-07-22T07:24:25.011Z,100013.41
2023-07-22T07:26:54.730Z,99997.94
2023-07-22T07:29:44.715Z,99991.91
2023-07-22T07:32:14.178Z,99985.16
2023-07-22T07:34:44.331Z,99978.91
2023-07-22T07:37:14.150Z,99983.00
2023-07-22T07:39:43.857Z,99975.09
2023-07-22T07:42:14.224Z,99976.75
2023-07-22T07:44:43.933Z,99971.56
2023-07-22T07:47:13.641Z,99977.25
2023-07-22T07:49:43.489Z,99966.97
2023-07-22T07:52:13.179Z,99975.38
2023-07-22T07:54:42.970Z,99969.94
2023-07-22T07:57:12.700Z,99975.09
2023-07-22T07:59:42.490Z,99977.00
2023-07-22T08:02:12.944Z,99979.16
2023-07-22T08:04:42.737Z,99982.69
2023-07-22T08:07:12.675Z,99975.59
2023-07-22T08:09:42.834Z,99966.38
2023-07-22T08:12:12.788Z,99962.25
2023-07-22T08:14:42.656Z,99969.09
2023-07-22T08:17:12.325Z,99957.63
2023-07-22T08:19:41.980Z,99962.25
2023-07-22T08:22:11.649Z,99961.16
2023-07-22T08:24:41.362Z,99968.50
2023-07-22T08:27:12.128Z,99958.97
2023-07-22T08:29:41.903Z,99961.44
2023-07-22T08:32:11.644Z,99958.44
2023-07-22T08:34:41.343Z,99955.63
2023-07-22T08:37:11.218Z,99955.06
2023-07-22T08:39:41.028Z,99945.59
2023-07-22T08:42:10.868Z,99965.78
2023-07-22T08:44:41.650Z,99975.75
2023-07-22T08:47:11.371Z,99989.19
2023-07-22T08:49:41.078Z,99993.78
2023-07-22T08:52:10.907Z,100007.16
2023-07-22T08:54:40.600Z,100019.06
2023-07-22T08:57:11.434Z,100010.19
2023-07-22T08:59:41.275Z,100016.97
2023-07-22T09:02:16.281Z,100023.69
2023-07-22T09:04:47.372Z,100017.59
2023-07-22T09:07:17.048Z,100019.84
2023-07-22T09:09:48.411Z,100029.28
2023-07-22T09:12:18.358Z,100030.94
2023-07-22T09:14:48.093Z,100027.88
2023-07-22T09:17:17.743Z,100029.72
2023-07-22T09:19:47.874Z,100022.19
2023-07-22T09:22:17.551Z,100027.97
2023-07-22T09:24:47.255Z,100025.50
2023-07-22T09:27:16.919Z,100031.75
2023-07-22T09:29:49.984Z,100035.56
2023-07-22T09:32:19.681Z,100029.50
2023-07-22T09:34:59.263Z,100027.50
2023-07-22T09:37:40.419Z,100027.19
2023-07-22T09:40:29.550Z,100034.63
2023-07-22T09:43:00.406Z,100036.16
2023-07-22T09:45:32.963Z,100034.53
2023-07-22T09:48:02.817Z,100039.47
2023-07-22T09:50:32.663Z,100045.13
2023-07-22T09:53:03.907Z,100033.44
2023-07-22T09:55:34.551Z,100042.41
2023-07-22T09:58:13.844Z,100042.31
2023-07-22T10:00:43.721Z,100034.75
2023-07-22T10:03:16.159Z,100035.00
2023-07-22T10:05:46.922Z,100037.47
2023-07-22T10:08:16.641Z,100043.97
2023-07-22T10:10:46.707Z,100048.00
2023-07-22T10:13:17.497Z,100043.97
2023-07-22T10:15:47.156Z,100054.81
2023-07-22T10:18:16.818Z,100055.66
2023-07-22T10:20:46.686Z,100051.28
2023-07-22T10:23:17.371Z,100059.59
2023-07-22T10:25:47.655Z,100052.25
2023-07-22T10:28:17.702Z,100056.16
2023-07-22T10:30:47.515Z,100059.34
2023-07-22T10:33:17.993Z,100060.72
2023-07-22T10:36:04.844Z,100063.00
2023-07-22T10:38:34.919Z,100063.34
2023-07-22T10:41:05.439Z,100061.47
2023-07-22T10:43:39.170Z,100070.78
2023-07-22T10:46:10.434Z,100065.59
2023-07-22T10:48:42.112Z,100075.88
2023-07-22T10:51:20.488Z,100066.91
2023-07-22T10:53:53.651Z,100062.75
2023-07-22T10:56:23.885Z,100067.72
2023-07-22T10:58:56.547Z,100067.00
2023-07-22T11:01:32.254Z,100069.97
2023-07-22T11:04:27.979Z,100077.78
2023-07-22T11:06:58.874Z,100087.66
2023-07-22T11:09:32.527Z,100093.22
2023-07-22T11:12:04.131Z,100090.88
2023-07-22T11:14:49.840Z,100094.53
2023-07-22T11:17:20.797Z,100099.00
2023-07-22T11:19:52.276Z,100103.75
2023-07-22T11:22:21.973Z,100104.09
2023-07-22T11:24:51.891Z,100105.16
2023-07-22T11:27:21.885Z,100101.03
2023-07-22T11:29:54.670Z,100097.25
2023-07-22T11:32:24.980Z,100104.09
2023-07-22T11:34:58.797Z,100100.94
2023-07-22T11:37:30.382Z,100106.81
2023-07-22T11:40:06.223Z,100109.66
2023-07-22T11:42:37.586Z,100108.59
2023-07-22T11:45:08.429Z,100121.13
2023-07-22T11:47:38.181Z,100112.13
2023-07-22T11:50:08.422Z,100117.44
2023-07-22T11:52:38.461Z,100120.28
2023-07-22T11:55:08.981Z,100112.63
2023-07-22T11:57:40.025Z,100111.69
2023-07-22T12:00:11.948Z,100121.94
2023-07-22T12:02:41.916Z,100121.22
2023-07-22T12:05:12.160Z,100113.06
2023-07-22T12:07:42.996Z,100117.44
2023-07-22T12:10:14.497Z,100114.00
2023-07-22T12:12:52.642Z,100119.13
2023-07-22T12:15:24.941Z,100111.69
2023-07-22T12:18:03.015Z,100120.16
2023-07-22T12:20:39.320Z,100114.16
2023-07-22T12:23:09.008Z,100116.03
2023-07-22T12:25:39.559Z,100106.56
2023-07-22T12:28:10.528Z,100105.75
2023-07-22T12:30:42.792Z,100102.69
2023-07-22T12:33:12.855Z,100111.69
2023-07-22T12:35:42.622Z,100108.25
2023-07-22T12:38:13.794Z,100112.88
2023-07-22T12:40:43.878Z,100106.69
2023-07-22T12:43:13.736Z,100112.38
2023-07-22T12:45:43.481Z,100110.59
2023-07-22T12:48:13.381Z,100099.50
2023-07-22T12:50:43.078Z,100100.81
2023-07-22T12:53:12.742Z,100099.50
2023-07-22T12:55:42.465Z,100094.56
2023-07-22T12:58:12.313Z,100096.78
2023-07-22T13:00:42.044Z,100096.91
2023-07-22T13:03:11.774Z,100105.19
2023-07-22T13:05:41.533Z,100104.34
2023-07-22T13:08:11.467Z,100100.31
2023-07-22T13:10:41.984Z,100091.13
2023-07-22T13:13:11.651Z,100097.13
2023-07-22T13:15:41.554Z,100094.66
2023-07-22T13:18:11.733Z,100095.94
2023-07-22T13:20:41.413Z,100093.25
2023-07-22T13:23:11.084Z,100091.22
2023-07-22T13:25:40.753Z,100084.50
2023-07-22T13:28:10.497Z,100084.03
2023-07-22T13:30:40.252Z,100084.03
2023-07-22T13:33:10.041Z,100083.81
2023-07-22T13:35:39.799Z,100077.56
2023-07-22T13:38:10.639Z,100079.19
2023-07-22T13:40:40.579Z,100079.66
2023-07-22T13:43:12.649Z,100078.00
2023-07-22T13:45:42.881Z,100078.25
2023-07-22T13:48:14.293Z,100079.28
2023-07-22T13:50:44.846Z,100078.84
2023-07-22T13:53:14.545Z,100081.81
2023-07-22T13:55:48.245Z,100081.56
2023-07-22T13:58:18.658Z,100076.56
2023-07-22T14:00:48.554Z,100080.25
2023-07-22T14:03:19.770Z,100074.69
2023-07-22T14:05:49.927Z,100063.59
2023-07-22T14:08:19.709Z,100064.44
2023-07-22T14:10:49.738Z,100060.06
2023-07-22T14:13:19.487Z,100066.78
2023-07-22T14:15:49.140Z,100063.00
2023-07-22T14:18:20.480Z,100072.56
2023-07-22T14:20:50.265Z,100074.47
2023-07-22T14:23:19.983Z,100066.31
2023-07-22T14:25:49.665Z,100067.97
2023-07-22T14:28:19.756Z,100064.44
2023-07-22T14:30:49.562Z,100061.47
2023-07-22T14:33:19.756Z,100059.81
2023-07-22T14:35:49.472Z,100060.66
2023-07-22T14:38:19.196Z,100060.28
2023-07-22T14:40:49.236Z,100056.03
2023-07-22T14:43:21.592Z,100055.47
2023-07-22T14:45:52.555Z,100058.19
2023-07-22T14:48:22.267Z,100062.44
2023-07-22T14:50:51.918Z,100051.09
2023-07-22T14:53:21.664Z,100056.16
2023-07-22T14:55:53.365Z,100052.13
2023-07-22T14:58:23.312Z,100057.94
2023-07-22T15:00:53.631Z,100052.97
2023-07-22T15:03:23.378Z,100051.31
2023-07-22T15:05:53.191Z,100046.94
2023-07-22T15:08:22.899Z,100039.38
2023-07-22T15:10:53.014Z,100033.13
2023-07-22T15:13:22.653Z,100041.28
2023-07-22T15:15:52.364Z,100047.78
2023-07-22T15:18:22.052Z,100040.13
2023-07-22T15:20:51.840Z,100042.34
2023-07-22T15:23:24.594Z,100046.50
2023-07-22T15:25:55.030Z,100041.28
2023-07-22T15:28:24.705Z,100037.28
2023-07-22T15:30:54.860Z,100038.91
2023-07-22T15:33:28.084Z,100036.44
2023-07-22T15:35:58.251Z,100038.34
2023-07-22T15:38:29.470Z,100025.22
2023-07-22T15:41:00.470Z,100027.47
2023-07-22T15:43:30.183Z,100033.38
2023-07-22T15:46:01.242Z,100026.88
2023-07-22T15:48:31.016Z,100026.88
2023-07-22T15:51:01.108Z,100030.41
2023-07-22T15:53:32.144Z,100017.44
2023-07-22T15:56:01.904Z,100024.75
2023-07-22T15:58:31.618Z,100023.09
2023-07-22T16:01:01.955Z,100014.13
2023-07-22T16:03:31.802Z,100016.38
2023-07-22T16:06:01.548Z,100007.66
2023-07-22T16:08:32.172Z,100004.06
2023-07-22T16:11:02.036Z,99994.88
2023-07-22T16:13:31.797Z,99992.16
2023-07-22T16:16:01.513Z,99998.44
2023-07-22T16:18:31.178Z,99992.38
2023-07-22T16:21:00.872Z,99984.75
2023-07-22T16:23:30.971Z,99980.94
2023-07-22T16:26:00.885Z,99980.69
2023-07-22T16:28:30.969Z,99973.63
2023-07-22T16:31:00.712Z,99971.25
2023-07-22T16:33:30.368Z,99965.47
2023-07-22T16:36:01.254Z,99966.56
2023-07-22T16:38:33.559Z,99962.50
2023-07-22T16:41:03.253Z,99966.91
2023-07-22T16:43:32.983Z,99960.63
2023-07-22T16:46:02.756Z,99952.47
2023-07-22T16:48:32.455Z,99950.25
2023-07-22T16:51:02.253Z,99939.97
2023-07-22T16:53:31.975Z,99937.50
2023-07-22T16:56:01.701Z,99942.09
2023-07-22T16:58:31.406Z,99930.16
2023-07-22T17:01:01.162Z,99931.00
2023-07-22T17:03:31.312Z,99928.53
2023-07-22T17:06:01.416Z,99922.03
2023-07-22T17:08:33.828Z,99912.47
2023-07-22T17:11:03.682Z,99917.66
2023-07-22T17:13:33.508Z,99921.56
2023-07-22T17:16:03.238Z,99913.41
2023-07-22T17:18:32.972Z,99916.84
2023-07-22T17:21:02.626Z,99912.22
2023-07-22T17:23:32.319Z,99902.53
2023-07-22T17:26:02.010Z,99902.53
2023-07-22T17:28:32.695Z,99901.84
2023-07-22T17:31:03.693Z,99893.78
2023-07-22T17:33:33.520Z,99896.50
2023-07-22T17:36:03.262Z,99895.44
2023-07-22T17:38:32.946Z,99892.50
2023-07-22T17:41:02.597Z,99886.25
2023-07-22T17:43:32.348Z,99888.38
2023-07-22T17:46:02.024Z,99886.47
2023-07-22T17:48:31.792Z,99884.34
2023-07-22T17:51:01.447Z,99883.53
2023-07-22T17:53:31.170Z,99878.56
2023-07-22T17:56:00.932Z,99880.56
2023-07-22T17:58:31.105Z,99882.63
2023-07-22T18:01:03.153Z,99881.53
2023-07-22T18:03:32.953Z,99883.75
2023-07-22T18:06:02.687Z,99887.06
2023-07-22T18:08:33.082Z,99884.09
2023-07-22T18:11:03.141Z,99884.34
2023-07-22T18:13:32.881Z,99890.84
2023-07-22T18:16:02.541Z,99877.03
2023-07-22T18:18:32.655Z,99874.31
2023-07-22T18:21:04.204Z,99871.00
2023-07-22T18:23:34.305Z,99868.06
2023-07-22T18:26:04.015Z,99870.69
2023-07-22T18:28:34.068Z,99869.25
2023-07-22T18:31:03.830Z,99859.81
2023-07-22T18:33:33.692Z,99859.81
2023-07-22T18:36:03.467Z,99855.19
2023-07-22T18:38:33.298Z,99843.75
2023-07-22T18:41:03.259Z,99846.44
2023-07-22T18:43:33.013Z,99849.16
2023-07-22T18:46:02.713Z,99845.41
2023-07-22T18:48:32.434Z,99847.63
2023-07-22T18:51:02.117Z,99839.47
2023-07-22T18:53:31.787Z,99830.41
2023-07-22T18:56:01.422Z,99830.75
2023-07-22T18:58:31.078Z,99835.13
2023-07-22T19:01:00.816Z,99826.41
2023-07-22T19:03:30.544Z,99824.72
2023-07-22T19:06:00.214Z,99824.81
2023-07-22T19:08:30.224Z,99825.34
2023-07-22T19:11:00.049Z,99822.63
2023-07-22T19:13:29.842Z,99818.25
2023-07-22T19:15:59.748Z,99808.78
2023-07-22T19:18:29.528Z,99815.63
2023-07-22T19:21:09.418Z,99814.47
2023-07-22T19:23:39.198Z,99809.13
2023-07-22T19:26:08.895Z,99815.53
2023-07-22T19:28:39.189Z,99819.41
2023-07-22T19:31:08.979Z,99814.56
2023-07-22T19:33:38.668Z,99830.25
2023-07-22T19:36:09.735Z,99820.81
2023-07-22T19:38:39.740Z,99824.09
2023-07-22T19:41:13.020Z,99820.81
2023-07-22T19:43:46.665Z,99824.00
2023-07-22T19:46:17.825Z,99813.75
2023-07-22T19:48:47.660Z,99819.66
2023-07-22T19:51:17.614Z,99815.03
2023-07-22T19:53:47.658Z,99807.97
2023-07-22T19:56:17.299Z,99805.34
2023-07-22T19:58:47.452Z,99808.31
2023-07-22T20:01:17.696Z,99813.75
2023-07-22T20:03:47.789Z,99809.94
2023-07-22T20:06:17.713Z,99806.50
2023-07-22T20:08:49.658Z,99814.41
2023-07-22T20:11:19.351Z,99802.63
2023-07-22T20:13:49.036Z,99808.66
2023-07-22T20:16:18.792Z,99802.97
2023-07-22T20:18:51.298Z,99806.97
2023-07-22T20:21:20.976Z,99805.94
2023-07-22T20:23:51.045Z,99807.81
2023-07-22T20:26:20.959Z,99811.38
2023-07-22T20:28:50.953Z,99808.06
2023-07-22T20:31:20.854Z,99813.50
2023-07-22T20:33:50.968Z,99812.19
2023-07-22T20:36:21.408Z,99821.47
2023-07-22T20:38:51.131Z,99820.91
2023-07-22T20:41:20.888Z,99819.25
2023-07-22T20:43:51.662Z,99823.97
2023-07-22T20:46:22.549Z,99825.88
2023-07-22T20:48:52.837Z,99823.16
2023-07-22T20:51:23.648Z,99825.03
2023-07-22T20:53:53.750Z,99820.66
2023-07-22T20:56:26.721Z,99824.53
2023-07-22T20:58:56.395Z,99825.59
2023-07-22T21:01:26.347Z,99822.63
2023-07-22T21:03:56.445Z,99823.38
2023-07-22T21:06:26.233Z,99816.38
2023-07-22T21:08:55.894Z,99819.09
2023-07-22T21:11:26.122Z,99815.66
2023-07-22T21:13:56.048Z,99813.19
2023-07-22T21:16:26.178Z,99816.97
2023-07-22T21:18:56.228Z,99807.97
2023-07-22T21:21:27.170Z,99808.84
2023-07-22T21:23:56.968Z,99806.13
2023-07-22T21:26:26.695Z,99804.53
2023-07-22T21:28:56.417Z,99812.22
2023-07-22T21:31:26.691Z,99810.78
2023-07-22T21:34:12.837Z,99811.72
2023-07-22T21:36:44.507Z,99807.50
2023-07-22T21:39:14.216Z,99804.31
2023-07-22T21:41:43.992Z,99810.22
2023-07-22T21:44:13.665Z,99808.41
2023-07-22T21:46:43.362Z,99812.22
2023-07-22T21:49:13.067Z,99809.75
2023-07-22T21:51:44.963Z,99816.56
2023-07-22T21:54:14.692Z,99812.28
2023-07-22T21:56:44.400Z,99813.28
2023-07-22T21:59:14.206Z,99815.66
2023-07-22T22:01:44.030Z,99815.66
2023-07-22T22:04:13.933Z,99809.97
2023-07-22T22:06:45.799Z,99804.31
2023-07-22T22:09:15.850Z,99804.44
2023-07-22T22:11:45.502Z,99804.03
2023-07-22T22:14:16.863Z,99803.31
2023-07-22T22:16:46.951Z,99797.53
2023-07-22T22:19:18.496Z,99802.47
2023-07-22T22:21:48.259Z,99796.94
2023-07-22T22:24:17.952Z,99800.50
2023-07-22T22:26:47.626Z,99792.84
2023-07-22T22:29:17.286Z,99804.25
2023-07-22T22:31:48.360Z,99801.56
2023-07-22T22:34:18.015Z,99783.13
2023-07-22T22:36:47.715Z,99786.31
2023-07-22T22:39:17.433Z,99791.75
2023-07-22T22:41:49.892Z,99797.03
2023-07-22T22:44:20.207Z,99803.78
2023-07-22T22:46:50.054Z,99794.00
2023-07-22T22:49:20.842Z,99801.31
2023-07-22T22:51:51.205Z,99798.09
2023-07-22T22:54:21.573Z,99787.59
2023-07-22T22:56:51.226Z,99777.94
2023-07-22T22:59:20.896Z,99775.47
2023-07-22T23:01:50.652Z,99776.53
2023-07-22T23:04:21.135Z,99780.91
2023-07-22T23:06:51.196Z,99788.78
2023-07-22T23:09:20.892Z,99793.66
2023-07-22T23:11:50.676Z,99795.06
2023-07-22T23:14:20.334Z,99799.75
2023-07-22T23:16:51.263Z,99800.97
2023-07-22T23:19:21.695Z,99802.63
2023-07-22T23:21:51.755Z,99812.66
2023-07-22T23:24:21.595Z,99802.38
2023-07-22T23:26:51.365Z,99797.53
2023-07-22T23:29:21.060Z,99801.31
2023-07-22T23:31:50.828Z,99795.91
2023-07-22T23:34:20.864Z,99799.66
2023-07-22T23:36:50.692Z,99800.72
2023-07-22T23:39:20.385Z,99805.69
2023-07-22T23:41:50.976Z,99798.00
2023-07-22T23:44:23.332Z,99790.13
2023-07-22T23:46:54.111Z,99789.03
2023-07-22T23:49:23.825Z,99786.59
2023-07-22T23:51:53.483Z,99782.31
2023-07-22T23:54:23.166Z,99774.38
2023-07-22T23:56:52.850Z,99779.81
2023-07-22T23:59:22.639Z,99778.44
